sensor_id;sensor_type;location;lat;lon;timestamp;P1;durP1;ratioP1;P2;durP2;ratioP2
11427;SDS011;5770;44.504;11.346;2023-02-19T00:00:59;6.53;;;5.90;;
11427;SDS011;5770;44.504;11.346;2023-02-19T00:03:28;8.90;;;6.70;;
11427;SDS011;5770;44.504;11.346;2023-02-19T00:05:55;7.35;;;6.55;;
11427;SDS011;5770;44.504;11.346;2023-02-19T00:08:24;6.43;;;5.82;;
11427;SDS011;5770;44.504;11.346;2023-02-19T00:10:51;7.97;;;6.72;;
11427;SDS011;5770;44.504;11.346;2023-02-19T00:13:18;8.43;;;6.10;;
11427;SDS011;5770;44.504;11.346;2023-02-19T00:15:45;7.50;;;6.38;;
11427;SDS011;5770;44.504;11.346;2023-02-19T00:18:11;6.18;;;5.57;;
11427;SDS011;5770;44.504;11.346;2023-02-19T00:20:38;6.28;;;5.68;;
11427;SDS011;5770;44.504;11.346;2023-02-19T00:23:05;7.45;;;5.68;;
11427;SDS011;5770;44.504;11.346;2023-02-19T00:25:36;7.28;;;6.40;;
11427;SDS011;5770;44.504;11.346;2023-02-19T00:28:04;6.90;;;6.20;;
11427;SDS011;5770;44.504;11.346;2023-02-19T00:30:31;7.32;;;6.63;;
11427;SDS011;5770;44.504;11.346;2023-02-19T00:32:58;8.27;;;5.97;;
11427;SDS011;5770;44.504;11.346;2023-02-19T00:35:26;6.80;;;6.13;;
11427;SDS011;5770;44.504;11.346;2023-02-19T00:37:53;8.20;;;6.28;;
11427;SDS011;5770;44.504;11.346;2023-02-19T00:40:20;6.20;;;5.70;;
11427;SDS011;5770;44.504;11.346;2023-02-19T00:42:51;7.32;;;6.10;;
11427;SDS011;5770;44.504;11.346;2023-02-19T00:45:18;7.68;;;6.68;;
11427;SDS011;5770;44.504;11.346;2023-02-19T00:47:45;7.45;;;6.32;;
11427;SDS011;5770;44.504;11.346;2023-02-19T00:50:12;7.30;;;6.38;;
11427;SDS011;5770;44.504;11.346;2023-02-19T00:52:39;6.25;;;5.55;;
11427;SDS011;5770;44.504;11.346;2023-02-19T00:55:07;9.40;;;6.18;;
11427;SDS011;5770;44.504;11.346;2023-02-19T00:57:34;7.40;;;5.93;;
11427;SDS011;5770;44.504;11.346;2023-02-19T01:00:03;7.30;;;6.40;;
11427;SDS011;5770;44.504;11.346;2023-02-19T01:02:30;25.23;;;20.70;;
11427;SDS011;5770;44.504;11.346;2023-02-19T01:04:57;35.15;;;27.38;;
11427;SDS011;5770;44.504;11.346;2023-02-19T01:07:25;41.42;;;33.55;;
11427;SDS011;5770;44.504;11.346;2023-02-19T01:09:52;43.55;;;36.28;;
11427;SDS011;5770;44.504;11.346;2023-02-19T01:12:19;45.90;;;36.05;;
11427;SDS011;5770;44.504;11.346;2023-02-19T01:14:48;44.38;;;37.45;;
11427;SDS011;5770;44.504;11.346;2023-02-19T01:17:16;48.58;;;38.08;;
11427;SDS011;5770;44.504;11.346;2023-02-19T01:19:43;50.60;;;39.58;;
11427;SDS011;5770;44.504;11.346;2023-02-19T01:22:10;51.03;;;40.65;;
11427;SDS011;5770;44.504;11.346;2023-02-19T01:24:37;58.20;;;42.25;;
11427;SDS011;5770;44.504;11.346;2023-02-19T01:27:04;52.92;;;42.50;;
11427;SDS011;5770;44.504;11.346;2023-02-19T01:29:31;53.53;;;41.20;;
11427;SDS011;5770;44.504;11.346;2023-02-19T01:31:58;53.47;;;41.13;;
11427;SDS011;5770;44.504;11.346;2023-02-19T01:34:27;51.42;;;40.92;;
11427;SDS011;5770;44.504;11.346;2023-02-19T01:36:57;54.40;;;42.60;;
11427;SDS011;5770;44.504;11.346;2023-02-19T01:39:24;58.67;;;46.00;;
11427;SDS011;5770;44.504;11.346;2023-02-19T01:41:51;56.05;;;44.10;;
11427;SDS011;5770;44.504;11.346;2023-02-19T01:47:22;59.50;;;47.67;;
11427;SDS011;5770;44.504;11.346;2023-02-19T01:49:52;65.05;;;47.88;;
11427;SDS011;5770;44.504;11.346;2023-02-19T01:52:21;59.55;;;47.95;;
11427;SDS011;5770;44.504;11.346;2023-02-19T01:54:51;59.30;;;47.92;;
11427;SDS011;5770;44.504;11.346;2023-02-19T01:57:19;58.88;;;48.13;;
11427;SDS011;5770;44.504;11.346;2023-02-19T01:59:48;58.17;;;46.83;;
11427;SDS011;5770;44.504;11.346;2023-02-19T02:02:18;63.53;;;48.38;;
11427;SDS011;5770;44.504;11.346;2023-02-19T02:04:46;56.40;;;45.42;;
11427;SDS011;5770;44.504;11.346;2023-02-19T02:07:14;60.97;;;46.50;;
11427;SDS011;5770;44.504;11.346;2023-02-19T02:09:56;59.13;;;45.15;;
11427;SDS011;5770;44.504;11.346;2023-02-19T02:12:40;59.95;;;46.15;;
11427;SDS011;5770;44.504;11.346;2023-02-19T02:15:07;59.90;;;47.00;;
11427;SDS011;5770;44.504;11.346;2023-02-19T02:17:35;53.30;;;44.20;;
11427;SDS011;5770;44.504;11.346;2023-02-19T02:20:21;53.35;;;44.53;;
11427;SDS011;5770;44.504;11.346;2023-02-19T02:23:01;52.50;;;43.22;;
11427;SDS011;5770;44.504;11.346;2023-02-19T02:25:41;53.83;;;43.58;;
11427;SDS011;5770;44.504;11.346;2023-02-19T02:28:39;60.58;;;45.88;;
11427;SDS011;5770;44.504;11.346;2023-02-19T02:31:24;82.03;;;55.00;;
11427;SDS011;5770;44.504;11.346;2023-02-19T02:33:56;50.60;;;40.45;;
11427;SDS011;5770;44.504;11.346;2023-02-19T02:36:30;46.75;;;38.00;;
11427;SDS011;5770;44.504;11.346;2023-02-19T02:38:58;44.38;;;37.17;;
11427;SDS011;5770;44.504;11.346;2023-02-19T02:41:31;46.90;;;38.78;;
11427;SDS011;5770;44.504;11.346;2023-02-19T02:43:59;47.28;;;39.20;;
11427;SDS011;5770;44.504;11.346;2023-02-19T02:46:29;48.20;;;39.35;;
11427;SDS011;5770;44.504;11.346;2023-02-19T02:49:00;49.58;;;39.35;;
11427;SDS011;5770;44.504;11.346;2023-02-19T02:51:30;50.30;;;40.03;;
11427;SDS011;5770;44.504;11.346;2023-02-19T02:54:00;47.33;;;39.25;;
11427;SDS011;5770;44.504;11.346;2023-02-19T02:56:50;50.03;;;40.20;;
11427;SDS011;5770;44.504;11.346;2023-02-19T02:59:18;50.40;;;39.63;;
11427;SDS011;5770;44.504;11.346;2023-02-19T03:01:49;48.15;;;38.35;;
11427;SDS011;5770;44.504;11.346;2023-02-19T03:04:37;46.58;;;39.03;;
11427;SDS011;5770;44.504;11.346;2023-02-19T03:07:25;45.63;;;37.35;;
11427;SDS011;5770;44.504;11.346;2023-02-19T03:09:57;43.58;;;34.10;;
11427;SDS011;5770;44.504;11.346;2023-02-19T03:12:25;42.95;;;34.70;;
11427;SDS011;5770;44.504;11.346;2023-02-19T03:15:11;39.33;;;33.92;;
11427;SDS011;5770;44.504;11.346;2023-02-19T03:18:01;41.42;;;34.35;;
11427;SDS011;5770;44.504;11.346;2023-02-19T03:20:47;39.30;;;32.28;;
11427;SDS011;5770;44.504;11.346;2023-02-19T03:23:18;38.97;;;31.13;;
11427;SDS011;5770;44.504;11.346;2023-02-19T03:26:08;39.03;;;31.15;;
11427;SDS011;5770;44.504;11.346;2023-02-19T03:28:35;37.70;;;31.95;;
11427;SDS011;5770;44.504;11.346;2023-02-19T03:31:23;38.25;;;32.15;;
11427;SDS011;5770;44.504;11.346;2023-02-19T03:33:55;35.50;;;31.45;;
11427;SDS011;5770;44.504;11.346;2023-02-19T03:36:23;35.95;;;30.55;;
11427;SDS011;5770;44.504;11.346;2023-02-19T03:38:55;38.40;;;31.60;;
11427;SDS011;5770;44.504;11.346;2023-02-19T03:41:27;35.22;;;29.52;;
11427;SDS011;5770;44.504;11.346;2023-02-19T03:44:02;33.53;;;29.38;;
11427;SDS011;5770;44.504;11.346;2023-02-19T03:46:34;38.45;;;31.48;;
11427;SDS011;5770;44.504;11.346;2023-02-19T03:49:12;36.28;;;30.17;;
11427;SDS011;5770;44.504;11.346;2023-02-19T03:51:49;34.22;;;29.30;;
11427;SDS011;5770;44.504;11.346;2023-02-19T03:54:17;34.03;;;29.38;;
11427;SDS011;5770;44.504;11.346;2023-02-19T03:56:49;34.05;;;29.17;;
11427;SDS011;5770;44.504;11.346;2023-02-19T03:59:20;33.13;;;28.67;;
11427;SDS011;5770;44.504;11.346;2023-02-19T04:01:54;36.97;;;30.73;;
11427;SDS011;5770;44.504;11.346;2023-02-19T04:04:24;33.28;;;29.02;;
11427;SDS011;5770;44.504;11.346;2023-02-19T04:06:54;34.20;;;28.65;;
11427;SDS011;5770;44.504;11.346;2023-02-19T04:09:22;33.78;;;28.92;;
11427;SDS011;5770;44.504;11.346;2023-02-19T04:11:52;33.00;;;27.88;;
11427;SDS011;5770;44.504;11.346;2023-02-19T04:14:21;32.28;;;27.45;;
11427;SDS011;5770;44.504;11.346;2023-02-19T04:16:50;34.03;;;27.15;;
11427;SDS011;5770;44.504;11.346;2023-02-19T04:19:24;30.95;;;26.65;;
11427;SDS011;5770;44.504;11.346;2023-02-19T04:21:54;31.60;;;27.27;;
11427;SDS011;5770;44.504;11.346;2023-02-19T04:24:24;37.55;;;28.77;;
11427;SDS011;5770;44.504;11.346;2023-02-19T04:26:54;35.13;;;29.42;;
11427;SDS011;5770;44.504;11.346;2023-02-19T04:29:21;33.75;;;28.60;;
11427;SDS011;5770;44.504;11.346;2023-02-19T04:31:48;32.22;;;27.35;;
11427;SDS011;5770;44.504;11.346;2023-02-19T04:34:16;31.02;;;25.67;;
11427;SDS011;5770;44.504;11.346;2023-02-19T04:36:44;30.75;;;24.90;;
11427;SDS011;5770;44.504;11.346;2023-02-19T04:39:14;23.60;;;20.45;;
11427;SDS011;5770;44.504;11.346;2023-02-19T04:41:41;23.90;;;19.65;;
11427;SDS011;5770;44.504;11.346;2023-02-19T04:44:08;23.15;;;20.45;;
11427;SDS011;5770;44.504;11.346;2023-02-19T04:46:36;20.23;;;18.02;;
11427;SDS011;5770;44.504;11.346;2023-02-19T04:49:03;20.92;;;17.88;;
11427;SDS011;5770;44.504;11.346;2023-02-19T04:51:30;25.05;;;18.85;;
11427;SDS011;5770;44.504;11.346;2023-02-19T04:53:59;18.80;;;16.63;;
11427;SDS011;5770;44.504;11.346;2023-02-19T04:56:26;23.35;;;16.95;;
11427;SDS011;5770;44.504;11.346;2023-02-19T04:58:53;19.30;;;15.90;;
11427;SDS011;5770;44.504;11.346;2023-02-19T05:01:20;17.98;;;15.65;;
11427;SDS011;5770;44.504;11.346;2023-02-19T05:03:47;17.92;;;14.77;;
11427;SDS011;5770;44.504;11.346;2023-02-19T05:06:14;15.82;;;14.10;;
11427;SDS011;5770;44.504;11.346;2023-02-19T05:08:41;13.77;;;12.38;;
11427;SDS011;5770;44.504;11.346;2023-02-19T05:11:10;14.65;;;12.95;;
11427;SDS011;5770;44.504;11.346;2023-02-19T05:13:38;15.63;;;13.90;;
11427;SDS011;5770;44.504;11.346;2023-02-19T05:16:06;16.92;;;12.27;;
11427;SDS011;5770;44.504;11.346;2023-02-19T05:18:37;13.82;;;12.32;;
11427;SDS011;5770;44.504;11.346;2023-02-19T05:21:05;14.77;;;12.60;;
11427;SDS011;5770;44.504;11.346;2023-02-19T05:23:32;14.00;;;12.32;;
11427;SDS011;5770;44.504;11.346;2023-02-19T05:26:05;14.95;;;12.15;;
11427;SDS011;5770;44.504;11.346;2023-02-19T05:28:34;13.98;;;11.60;;
11427;SDS011;5770;44.504;11.346;2023-02-19T05:31:05;15.00;;;12.50;;
11427;SDS011;5770;44.504;11.346;2023-02-19T05:33:33;14.40;;;12.80;;
11427;SDS011;5770;44.504;11.346;2023-02-19T05:36:03;14.40;;;12.70;;
11427;SDS011;5770;44.504;11.346;2023-02-19T05:38:32;15.70;;;12.70;;
11427;SDS011;5770;44.504;11.346;2023-02-19T05:41:09;14.95;;;12.85;;
11427;SDS011;5770;44.504;11.346;2023-02-19T05:43:39;15.13;;;12.40;;
11427;SDS011;5770;44.504;11.346;2023-02-19T05:46:06;15.23;;;12.65;;
11427;SDS011;5770;44.504;11.346;2023-02-19T05:48:34;13.70;;;12.38;;
11427;SDS011;5770;44.504;11.346;2023-02-19T05:51:01;14.00;;;12.57;;
11427;SDS011;5770;44.504;11.346;2023-02-19T05:53:29;15.82;;;12.82;;
11427;SDS011;5770;44.504;11.346;2023-02-19T05:55:56;17.55;;;12.57;;
11427;SDS011;5770;44.504;11.346;2023-02-19T05:58:23;14.88;;;13.25;;
11427;SDS011;5770;44.504;11.346;2023-02-19T06:00:52;15.15;;;13.52;;
11427;SDS011;5770;44.504;11.346;2023-02-19T06:03:19;14.73;;;12.98;;
11427;SDS011;5770;44.504;11.346;2023-02-19T06:05:47;15.32;;;13.35;;
11427;SDS011;5770;44.504;11.346;2023-02-19T06:08:14;16.60;;;13.35;;
11427;SDS011;5770;44.504;11.346;2023-02-19T06:10:42;15.85;;;12.88;;
11427;SDS011;5770;44.504;11.346;2023-02-19T06:13:09;15.98;;;13.48;;
11427;SDS011;5770;44.504;11.346;2023-02-19T06:15:36;16.35;;;14.02;;
11427;SDS011;5770;44.504;11.346;2023-02-19T06:18:05;24.38;;;13.90;;
11427;SDS011;5770;44.504;11.346;2023-02-19T06:20:32;15.90;;;13.23;;
11427;SDS011;5770;44.504;11.346;2023-02-19T06:22:59;15.90;;;14.20;;
11427;SDS011;5770;44.504;11.346;2023-02-19T06:25:26;17.85;;;13.45;;
11427;SDS011;5770;44.504;11.346;2023-02-19T06:27:53;16.65;;;14.52;;
11427;SDS011;5770;44.504;11.346;2023-02-19T06:30:20;18.48;;;14.02;;
11427;SDS011;5770;44.504;11.346;2023-02-19T06:32:50;18.38;;;14.32;;
11427;SDS011;5770;44.504;11.346;2023-02-19T06:35:18;15.90;;;13.98;;
11427;SDS011;5770;44.504;11.346;2023-02-19T06:37:45;17.95;;;13.25;;
11427;SDS011;5770;44.504;11.346;2023-02-19T06:40:13;15.52;;;13.80;;
11427;SDS011;5770;44.504;11.346;2023-02-19T06:42:40;17.52;;;14.00;;
11427;SDS011;5770;44.504;11.346;2023-02-19T06:45:09;15.45;;;13.52;;
11427;SDS011;5770;44.504;11.346;2023-02-19T06:47:36;20.30;;;14.18;;
11427;SDS011;5770;44.504;11.346;2023-02-19T06:50:04;15.27;;;13.60;;
11427;SDS011;5770;44.504;11.346;2023-02-19T06:52:32;22.23;;;14.13;;
11427;SDS011;5770;44.504;11.346;2023-02-19T06:54:59;22.48;;;14.00;;
11427;SDS011;5770;44.504;11.346;2023-02-19T06:57:27;16.45;;;14.13;;
11427;SDS011;5770;44.504;11.346;2023-02-19T06:59:53;19.05;;;14.57;;
11427;SDS011;5770;44.504;11.346;2023-02-19T07:02:20;17.05;;;13.85;;
11427;SDS011;5770;44.504;11.346;2023-02-19T07:04:47;18.17;;;14.68;;
11427;SDS011;5770;44.504;11.346;2023-02-19T07:07:15;16.83;;;14.60;;
11427;SDS011;5770;44.504;11.346;2023-02-19T07:09:44;18.48;;;14.70;;
11427;SDS011;5770;44.504;11.346;2023-02-19T07:12:10;17.58;;;14.52;;
11427;SDS011;5770;44.504;11.346;2023-02-19T07:14:37;16.08;;;14.30;;
11427;SDS011;5770;44.504;11.346;2023-02-19T07:17:04;19.85;;;14.52;;
11427;SDS011;5770;44.504;11.346;2023-02-19T07:19:31;18.23;;;15.15;;
11427;SDS011;5770;44.504;11.346;2023-02-19T07:21:58;18.85;;;14.82;;
11427;SDS011;5770;44.504;11.346;2023-02-19T07:24:25;22.20;;;15.52;;
11427;SDS011;5770;44.504;11.346;2023-02-19T07:26:54;19.38;;;15.13;;
11427;SDS011;5770;44.504;11.346;2023-02-19T07:29:21;19.20;;;14.20;;
11427;SDS011;5770;44.504;11.346;2023-02-19T07:31:48;17.77;;;15.60;;
11427;SDS011;5770;44.504;11.346;2023-02-19T07:34:15;18.52;;;15.75;;
11427;SDS011;5770;44.504;11.346;2023-02-19T07:36:43;17.98;;;15.38;;
11427;SDS011;5770;44.504;11.346;2023-02-19T07:39:11;19.30;;;16.48;;
11427;SDS011;5770;44.504;11.346;2023-02-19T07:41:39;18.88;;;14.85;;
11427;SDS011;5770;44.504;11.346;2023-02-19T07:44:07;23.42;;;16.02;;
11427;SDS011;5770;44.504;11.346;2023-02-19T07:46:37;18.83;;;16.05;;
11427;SDS011;5770;44.504;11.346;2023-02-19T07:49:04;18.35;;;15.63;;
11427;SDS011;5770;44.504;11.346;2023-02-19T07:51:32;19.25;;;16.23;;
11427;SDS011;5770;44.504;11.346;2023-02-19T07:53:59;21.42;;;16.92;;
11427;SDS011;5770;44.504;11.346;2023-02-19T07:56:26;20.73;;;16.58;;
11427;SDS011;5770;44.504;11.346;2023-02-19T07:58:53;21.80;;;17.05;;
11427;SDS011;5770;44.504;11.346;2023-02-19T08:01:22;18.33;;;15.63;;
11427;SDS011;5770;44.504;11.346;2023-02-19T08:04:11;18.67;;;15.65;;
11427;SDS011;5770;44.504;11.346;2023-02-19T08:06:38;19.83;;;16.38;;
11427;SDS011;5770;44.504;11.346;2023-02-19T08:09:05;22.27;;;16.38;;
11427;SDS011;5770;44.504;11.346;2023-02-19T08:11:32;19.15;;;17.05;;
11427;SDS011;5770;44.504;11.346;2023-02-19T08:14:22;19.05;;;16.92;;
11427;SDS011;5770;44.504;11.346;2023-02-19T08:16:51;19.08;;;16.67;;
11427;SDS011;5770;44.504;11.346;2023-02-19T08:19:18;19.63;;;16.90;;
11427;SDS011;5770;44.504;11.346;2023-02-19T08:21:45;18.70;;;16.70;;
11427;SDS011;5770;44.504;11.346;2023-02-19T08:24:12;19.67;;;17.10;;
11427;SDS011;5770;44.504;11.346;2023-02-19T08:26:39;18.60;;;16.60;;
11427;SDS011;5770;44.504;11.346;2023-02-19T08:29:06;18.48;;;15.57;;
11427;SDS011;5770;44.504;11.346;2023-02-19T08:31:33;19.77;;;16.80;;
11427;SDS011;5770;44.504;11.346;2023-02-19T08:34:02;20.35;;;16.95;;
11427;SDS011;5770;44.504;11.346;2023-02-19T08:36:29;20.77;;;15.98;;
11427;SDS011;5770;44.504;11.346;2023-02-19T08:38:56;19.27;;;16.40;;
11427;SDS011;5770;44.504;11.346;2023-02-19T08:41:23;19.10;;;16.23;;
11427;SDS011;5770;44.504;11.346;2023-02-19T08:43:50;17.77;;;15.93;;
11427;SDS011;5770;44.504;11.346;2023-02-19T08:46:20;17.92;;;16.00;;
11427;SDS011;5770;44.504;11.346;2023-02-19T08:48:47;20.63;;;17.02;;
11427;SDS011;5770;44.504;11.346;2023-02-19T08:51:16;21.60;;;17.90;;
11427;SDS011;5770;44.504;11.346;2023-02-19T08:53:44;22.77;;;17.58;;
11427;SDS011;5770;44.504;11.346;2023-02-19T08:56:12;22.38;;;17.67;;
11427;SDS011;5770;44.504;11.346;2023-02-19T08:58:43;22.67;;;18.63;;
11427;SDS011;5770;44.504;11.346;2023-02-19T09:01:11;24.15;;;20.35;;
11427;SDS011;5770;44.504;11.346;2023-02-19T09:03:38;22.73;;;19.73;;
11427;SDS011;5770;44.504;11.346;2023-02-19T09:06:06;24.95;;;20.50;;
11427;SDS011;5770;44.504;11.346;2023-02-19T09:08:34;24.90;;;20.98;;
11427;SDS011;5770;44.504;11.346;2023-02-19T09:11:03;22.02;;;19.63;;
11427;SDS011;5770;44.504;11.346;2023-02-19T09:13:31;23.30;;;20.25;;
11427;SDS011;5770;44.504;11.346;2023-02-19T09:15:58;22.67;;;19.25;;
11427;SDS011;5770;44.504;11.346;2023-02-19T09:18:25;21.25;;;18.60;;
11427;SDS011;5770;44.504;11.346;2023-02-19T09:20:54;20.42;;;17.83;;
11427;SDS011;5770;44.504;11.346;2023-02-19T09:23:25;21.45;;;17.90;;
11427;SDS011;5770;44.504;11.346;2023-02-19T09:25:57;20.75;;;17.98;;
11427;SDS011;5770;44.504;11.346;2023-02-19T09:28:25;20.58;;;16.98;;
11427;SDS011;5770;44.504;11.346;2023-02-19T09:30:52;20.73;;;17.05;;
11427;SDS011;5770;44.504;11.346;2023-02-19T09:33:19;21.40;;;16.50;;
11427;SDS011;5770;44.504;11.346;2023-02-19T09:35:46;20.83;;;16.63;;
11427;SDS011;5770;44.504;11.346;2023-02-19T09:38:13;20.08;;;17.05;;
11427;SDS011;5770;44.504;11.346;2023-02-19T09:40:41;18.50;;;16.38;;
11427;SDS011;5770;44.504;11.346;2023-02-19T09:43:14;21.33;;;16.88;;
11427;SDS011;5770;44.504;11.346;2023-02-19T09:45:47;19.50;;;16.48;;
11427;SDS011;5770;44.504;11.346;2023-02-19T09:48:18;19.90;;;16.75;;
11427;SDS011;5770;44.504;11.346;2023-02-19T09:50:46;20.00;;;16.63;;
11427;SDS011;5770;44.504;11.346;2023-02-19T09:53:14;19.88;;;15.43;;
11427;SDS011;5770;44.504;11.346;2023-02-19T09:55:46;17.52;;;15.27;;
11427;SDS011;5770;44.504;11.346;2023-02-19T09:58:20;16.10;;;14.35;;
11427;SDS011;5770;44.504;11.346;2023-02-19T10:00:48;16.30;;;14.20;;
11427;SDS011;5770;44.504;11.346;2023-02-19T10:03:19;17.25;;;15.40;;
11427;SDS011;5770;44.504;11.346;2023-02-19T10:05:47;18.52;;;14.52;;
11427;SDS011;5770;44.504;11.346;2023-02-19T10:08:17;16.98;;;15.05;;
11427;SDS011;5770;44.504;11.346;2023-02-19T10:10:45;20.75;;;16.67;;
11427;SDS011;5770;44.504;11.346;2023-02-19T10:13:15;16.77;;;14.93;;
11427;SDS011;5770;44.504;11.346;2023-02-19T10:15:46;19.50;;;15.50;;
11427;SDS011;5770;44.504;11.346;2023-02-19T10:18:16;18.20;;;14.95;;
11427;SDS011;5770;44.504;11.346;2023-02-19T10:20:44;19.00;;;15.57;;
11427;SDS011;5770;44.504;11.346;2023-02-19T10:23:12;18.35;;;15.60;;
11427;SDS011;5770;44.504;11.346;2023-02-19T10:25:41;16.83;;;14.52;;
11427;SDS011;5770;44.504;11.346;2023-02-19T10:28:10;22.42;;;14.65;;
11427;SDS011;5770;44.504;11.346;2023-02-19T10:30:40;15.95;;;14.27;;
11427;SDS011;5770;44.504;11.346;2023-02-19T10:33:09;15.75;;;13.45;;
11427;SDS011;5770;44.504;11.346;2023-02-19T10:35:37;15.70;;;13.90;;
11427;SDS011;5770;44.504;11.346;2023-02-19T10:38:05;16.50;;;13.35;;
11427;SDS011;5770;44.504;11.346;2023-02-19T10:40:32;17.75;;;14.82;;
11427;SDS011;5770;44.504;11.346;2023-02-19T10:43:00;16.55;;;14.43;;
11427;SDS011;5770;44.504;11.346;2023-02-19T10:45:29;17.17;;;14.73;;
11427;SDS011;5770;44.504;11.346;2023-02-19T10:48:00;18.15;;;14.35;;
11427;SDS011;5770;44.504;11.346;2023-02-19T10:50:30;15.18;;;13.57;;
11427;SDS011;5770;44.504;11.346;2023-02-19T10:52:59;16.35;;;13.18;;
11427;SDS011;5770;44.504;11.346;2023-02-19T10:55:28;15.85;;;14.07;;
11427;SDS011;5770;44.504;11.346;2023-02-19T10:57:58;17.40;;;15.00;;
11427;SDS011;5770;44.504;11.346;2023-02-19T11:00:48;15.57;;;13.98;;
11427;SDS011;5770;44.504;11.346;2023-02-19T11:03:35;17.00;;;13.95;;
11427;SDS011;5770;44.504;11.346;2023-02-19T11:06:04;17.77;;;14.05;;
11427;SDS011;5770;44.504;11.346;2023-02-19T11:08:35;16.33;;;14.38;;
11427;SDS011;5770;44.504;11.346;2023-02-19T11:11:19;18.85;;;14.27;;
11427;SDS011;5770;44.504;11.346;2023-02-19T11:13:47;16.98;;;14.93;;
11427;SDS011;5770;44.504;11.346;2023-02-19T11:16:14;15.57;;;13.90;;
11427;SDS011;5770;44.504;11.346;2023-02-19T11:18:41;18.10;;;14.23;;
11427;SDS011;5770;44.504;11.346;2023-02-19T11:21:23;15.80;;;13.35;;
11427;SDS011;5770;44.504;11.346;2023-02-19T11:23:52;15.40;;;13.65;;
11427;SDS011;5770;44.504;11.346;2023-02-19T11:26:21;15.95;;;14.35;;
11427;SDS011;5770;44.504;11.346;2023-02-19T11:28:54;16.50;;;13.70;;
11427;SDS011;5770;44.504;11.346;2023-02-19T11:31:22;16.20;;;14.50;;
11427;SDS011;5770;44.504;11.346;2023-02-19T11:33:54;15.32;;;13.73;;
11427;SDS011;5770;44.504;11.346;2023-02-19T11:36:31;18.05;;;14.57;;
11427;SDS011;5770;44.504;11.346;2023-02-19T11:39:02;15.75;;;13.43;;
11427;SDS011;5770;44.504;11.346;2023-02-19T11:44:19;17.55;;;14.43;;
11427;SDS011;5770;44.504;11.346;2023-02-19T11:46:56;18.05;;;14.48;;
11427;SDS011;5770;44.504;11.346;2023-02-19T11:49:42;17.75;;;14.60;;
11427;SDS011;5770;44.504;11.346;2023-02-19T11:52:21;16.10;;;14.40;;
11427;SDS011;5770;44.504;11.346;2023-02-19T11:54:52;16.92;;;13.32;;
11427;SDS011;5770;44.504;11.346;2023-02-19T11:57:34;17.33;;;15.23;;
11427;SDS011;5770;44.504;11.346;2023-02-19T12:00:13;16.42;;;13.75;;
11427;SDS011;5770;44.504;11.346;2023-02-19T12:02:44;16.65;;;14.48;;
11427;SDS011;5770;44.504;11.346;2023-02-19T12:05:30;19.80;;;14.45;;
11427;SDS011;5770;44.504;11.346;2023-02-19T12:08:12;16.33;;;14.23;;
11427;SDS011;5770;44.504;11.346;2023-02-19T12:10:47;17.30;;;14.05;;
11427;SDS011;5770;44.504;11.346;2023-02-19T12:13:25;18.58;;;15.82;;
11427;SDS011;5770;44.504;11.346;2023-02-19T12:16:12;16.23;;;14.48;;
11427;SDS011;5770;44.504;11.346;2023-02-19T12:21:43;17.80;;;13.93;;
11427;SDS011;5770;44.504;11.346;2023-02-19T12:27:24;17.83;;;14.23;;
11427;SDS011;5770;44.504;11.346;2023-02-19T12:33:06;17.10;;;15.30;;
11427;SDS011;5770;44.504;11.346;2023-02-19T12:35:43;19.40;;;16.17;;
11427;SDS011;5770;44.504;11.346;2023-02-19T12:38:21;19.23;;;16.63;;
11427;SDS011;5770;44.504;11.346;2023-02-19T12:41:12;18.30;;;16.13;;
11427;SDS011;5770;44.504;11.346;2023-02-19T12:43:43;24.17;;;17.60;;
11427;SDS011;5770;44.504;11.346;2023-02-19T12:46:13;23.73;;;15.43;;
11427;SDS011;5770;44.504;11.346;2023-02-19T12:48:41;16.40;;;14.65;;
11427;SDS011;5770;44.504;11.346;2023-02-19T12:51:14;15.90;;;13.85;;
11427;SDS011;5770;44.504;11.346;2023-02-19T12:53:46;20.17;;;14.75;;
11427;SDS011;5770;44.504;11.346;2023-02-19T12:56:19;20.05;;;16.02;;
11427;SDS011;5770;44.504;11.346;2023-02-19T12:58:51;17.95;;;15.20;;
11427;SDS011;5770;44.504;11.346;2023-02-19T13:01:22;17.13;;;15.02;;
11427;SDS011;5770;44.504;11.346;2023-02-19T13:04:04;18.35;;;14.85;;
11427;SDS011;5770;44.504;11.346;2023-02-19T13:06:45;17.08;;;15.23;;
11427;SDS011;5770;44.504;11.346;2023-02-19T13:09:17;17.55;;;15.15;;
11427;SDS011;5770;44.504;11.346;2023-02-19T13:11:47;18.77;;;14.75;;
11427;SDS011;5770;44.504;11.346;2023-02-19T13:14:20;19.60;;;16.33;;
11427;SDS011;5770;44.504;11.346;2023-02-19T13:16:53;17.58;;;14.77;;
11427;SDS011;5770;44.504;11.346;2023-02-19T13:19:23;16.40;;;14.52;;
11427;SDS011;5770;44.504;11.346;2023-02-19T13:21:53;15.77;;;14.07;;
11427;SDS011;5770;44.504;11.346;2023-02-19T13:24:41;18.00;;;14.88;;
11427;SDS011;5770;44.504;11.346;2023-02-19T13:27:19;17.45;;;14.18;;
11427;SDS011;5770;44.504;11.346;2023-02-19T13:30:03;16.23;;;14.40;;
11427;SDS011;5770;44.504;11.346;2023-02-19T13:32:51;17.75;;;14.10;;
11427;SDS011;5770;44.504;11.346;2023-02-19T13:35:42;17.55;;;13.88;;
11427;SDS011;5770;44.504;11.346;2023-02-19T13:38:30;15.10;;;13.52;;
11427;SDS011;5770;44.504;11.346;2023-02-19T13:40:58;17.80;;;14.10;;
11427;SDS011;5770;44.504;11.346;2023-02-19T13:43:27;19.13;;;14.25;;
11427;SDS011;5770;44.504;11.346;2023-02-19T13:45:59;17.67;;;13.80;;
11427;SDS011;5770;44.504;11.346;2023-02-19T13:48:28;17.10;;;15.23;;
11427;SDS011;5770;44.504;11.346;2023-02-19T13:53:49;17.33;;;12.98;;
11427;SDS011;5770;44.504;11.346;2023-02-19T13:56:35;15.73;;;12.93;;
11427;SDS011;5770;44.504;11.346;2023-02-19T14:04:43;16.48;;;12.90;;
11427;SDS011;5770;44.504;11.346;2023-02-19T14:07:19;15.07;;;13.48;;
11427;SDS011;5770;44.504;11.346;2023-02-19T14:09:46;15.30;;;13.75;;
11427;SDS011;5770;44.504;11.346;2023-02-19T14:12:17;14.85;;;13.35;;
11427;SDS011;5770;44.504;11.346;2023-02-19T14:14:46;18.13;;;13.50;;
11427;SDS011;5770;44.504;11.346;2023-02-19T14:17:26;16.85;;;14.00;;
11427;SDS011;5770;44.504;11.346;2023-02-19T14:19:57;16.02;;;13.63;;
11427;SDS011;5770;44.504;11.346;2023-02-19T14:25:17;16.98;;;12.80;;
11427;SDS011;5770;44.504;11.346;2023-02-19T14:27:45;17.60;;;15.40;;
11427;SDS011;5770;44.504;11.346;2023-02-19T14:30:13;16.10;;;13.60;;
11427;SDS011;5770;44.504;11.346;2023-02-19T14:32:40;16.00;;;14.30;;
11427;SDS011;5770;44.504;11.346;2023-02-19T14:35:17;16.45;;;13.50;;
11427;SDS011;5770;44.504;11.346;2023-02-19T14:37:44;16.80;;;13.93;;
11427;SDS011;5770;44.504;11.346;2023-02-19T14:40:16;14.75;;;12.70;;
11427;SDS011;5770;44.504;11.346;2023-02-19T14:42:44;16.38;;;13.13;;
11427;SDS011;5770;44.504;11.346;2023-02-19T14:45:11;13.10;;;11.80;;
11427;SDS011;5770;44.504;11.346;2023-02-19T14:47:41;23.63;;;13.32;;
11427;SDS011;5770;44.504;11.346;2023-02-19T14:50:11;14.85;;;13.35;;
11427;SDS011;5770;44.504;11.346;2023-02-19T14:52:42;16.10;;;13.65;;
11427;SDS011;5770;44.504;11.346;2023-02-19T14:55:18;14.43;;;12.70;;
11427;SDS011;5770;44.504;11.346;2023-02-19T14:57:51;16.30;;;13.60;;
11427;SDS011;5770;44.504;11.346;2023-02-19T15:00:21;14.63;;;12.02;;
11427;SDS011;5770;44.504;11.346;2023-02-19T15:02:48;15.85;;;12.95;;
11427;SDS011;5770;44.504;11.346;2023-02-19T15:05:16;14.93;;;13.43;;
11427;SDS011;5770;44.504;11.346;2023-02-19T15:07:45;14.65;;;13.15;;
11427;SDS011;5770;44.504;11.346;2023-02-19T15:10:12;15.13;;;13.38;;